Time,TemperatureF,DewpointF,PressureIn,WindDirection,WindDirectionDegrees,WindSpeedMPH,WindSpeedGustMPH,Humidity,HourlyPrecipIn,Conditions,Clouds,dailyrainin,SoftwareType,DateUTC
2013-02-08 00:08:00,71.0,65.0,29.88,WSW,248,0.0,-999.0,80,-99.99,,,0.00,weatherlink.com 1.10,2013-02-08 05:08:00,
2013-02-08 00:23:00,70.8,65.0,29.88,West,262,2.0,-999.0,81,-99.99,,,0.00,weatherlink.com 1.10,2013-02-08 05:23:00,
2013-02-08 00:39:00,70.4,65.0,29.88,WSW,254,6.0,-999.0,82,-99.99,,,0.00,weatherlink.com 1.10,2013-02-08 05:39:00,
2013-02-08 00:53:00,70.2,65.0,29.87,West,266,2.0,-999.0,82,-99.99,,,0.00,weatherlink.com 1.10,2013-02-08 05:53:00,
2013-02-08 01:08:00,70.1,65.0,29.88,West,279,2.0,-999.0,83,-99.99,,,0.00,weatherlink.com 1.10,2013-02-08 06:08:00,
2013-02-08 01:23:00,69.9,65.0,29.87,West,275,5.0,-999.0,83,-99.99,,,0.00,weatherlink.com 1.10,2013-02-08 06:23:00,
2013-02-08 01:38:00,69.7,65.0,29.88,WSW,250,1.0,-999.0,84,-99.99,,,0.00,weatherlink.com 1.10,2013-02-08 06:38:00,
2013-02-08 01:53:00,69.5,65.0,29.87,WNW,283,2.0,-999.0,84,-99.99,,,0.00,weatherlink.com 1.10,2013-02-08 06:53:00,
2013-02-08 02:08:00,69.2,65.0,29.87,WSW,257,2.0,-999.0,85,-99.99,,,0.00,weatherlink.com 1.10,2013-02-08 07:08:00,
2013-02-08 02:23:00,69.1,65.0,29.87,WNW,300,4.0,-999.0,86,-99.99,,,0.00,weatherlink.com 1.10,2013-02-08 07:23:00,
2013-02-08 02:38:00,68.9,65.0,29.87,West,274,6.0,-999.0,86,-99.99,,,0.00,weatherlink.com 1.10,2013-02-08 07:38:00,
2013-02-08 02:53:00,68.7,65.0,29.87,West,273,6.0,-999.0,87,-99.99,,,0.00,weatherlink.com 1.10,2013-02-08 07:53:00,
2013-02-08 03:08:00,68.8,65.0,29.87,West,279,5.0,-999.0,87,-99.99,,,0.00,weatherlink.com 1.10,2013-02-08 08:08:00,
2013-02-08 03:23:00,68.9,65.0,29.88,West,265,2.0,-999.0,88,-99.99,,,0.00,weatherlink.com 1.10,2013-02-08 08:23:00,
2013-02-08 03:38:00,69.2,65.0,29.88,West,275,6.0,-999.0,87,-99.99,,,0.00,weatherlink.com 1.10,2013-02-08 08:38:00,
2013-02-08 03:53:00,69.4,65.0,29.88,WNW,284,7.0,-999.0,87,-99.99,,,0.00,weatherlink.com 1.10,2013-02-08 08:53:00,
2013-02-08 04:08:00,69.5,66.0,29.88,SW,227,5.0,-999.0,87,-99.99,,,0.00,weatherlink.com 1.10,2013-02-08 09:08:00,
2013-02-08 04:23:00,69.5,65.0,29.88,West,260,4.0,-999.0,86,-99.99,,,0.00,weatherlink.com 1.10,2013-02-08 09:23:00,
2013-02-08 04:38:00,69.4,65.0,29.89,WNW,282,5.0,-999.0,86,-99.99,,,0.00,weatherlink.com 1.10,2013-02-08 09:38:00,
2013-02-08 04:53:00,69.1,65.0,29.89,WNW,293,5.0,-999.0,86,-99.99,,,0.00,weatherlink.com 1.10,2013-02-08 09:53:00,
2013-02-08 05:08:00,68.9,65.0,29.90,West,268,3.0,-999.0,86,-99.99,,,0.00,weatherlink.com 1.10,2013-02-08 10:08:00,
2013-02-08 05:23:00,68.2,64.0,29.90,WSW,246,6.0,-999.0,86,-99.99,,,0.00,weatherlink.com 1.10,2013-02-08 10:23:00,
2013-02-08 05:38:00,67.7,64.0,29.90,WNW,298,5.0,-999.0,87,-99.99,,,0.00,weatherlink.com 1.10,2013-02-08 10:38:00,
2013-02-08 05:53:00,67.1,63.0,29.91,West,266,0.0,-999.0,87,-99.99,,,0.00,weatherlink.com 1.10,2013-02-08 10:53:00,
2013-02-08 06:08:00,66.6,63.0,29.92,West,270,0.0,-999.0,88,-99.99,,,0.00,weatherlink.com 1.10,2013-02-08 11:08:00,
2013-02-08 06:24:00,66.1,63.0,29.93,WNW,294,0.0,-999.0,89,-99.99,,,0.00,weatherlink.com 1.10,2013-02-08 11:24:00,
2013-02-08 06:38:00,65.6,62.0,29.94,NNE,14,0.0,-999.0,89,-99.99,,,0.00,weatherlink.com 1.10,2013-02-08 11:38:00,
2013-02-08 06:54:00,65.1,62.0,29.95,WNW,294,4.0,-999.0,88,-99.99,,,0.00,weatherlink.com 1.10,2013-02-08 11:54:00,
2013-02-08 07:07:00,64.9,61.0,29.95,WNW,300,5.0,-999.0,87,-99.99,,,0.00,weatherlink.com 1.10,2013-02-08 12:07:00,
2013-02-08 07:22:00,64.7,61.0,29.96,WNW,298,0.0,-999.0,87,-99.99,,,0.00,weatherlink.com 1.10,2013-02-08 12:22:00,
2013-02-08 07:37:00,64.7,61.0,29.96,WNW,298,10.0,-999.0,87,-99.99,,,0.00,weatherlink.com 1.10,2013-02-08 12:37:00,
2013-02-08 07:52:00,64.6,61.0,29.96,WNW,289,4.0,-999.0,87,-99.99,,,0.00,weatherlink.com 1.10,2013-02-08 12:52:00,
2013-02-08 08:07:00,64.8,61.0,29.98,West,267,2.0,-999.0,86,-99.99,,,0.00,weatherlink.com 1.10,2013-02-08 13:07:00,
2013-02-08 08:22:00,64.8,61.0,29.98,NW,309,4.0,-999.0,86,-99.99,,,0.00,weatherlink.com 1.10,2013-02-08 13:22:00,
2013-02-08 08:37:00,65.3,61.0,29.98,NW,315,7.0,-999.0,85,-99.99,,,0.00,weatherlink.com 1.10,2013-02-08 13:37:00,
2013-02-08 08:52:00,65.7,60.0,29.99,NW,304,2.0,-999.0,83,-99.99,,,0.00,weatherlink.com 1.10,2013-02-08 13:52:00,
2013-02-08 09:07:00,66.3,60.0,29.99,NW,325,5.0,-999.0,81,-99.99,,,0.00,weatherlink.com 1.10,2013-02-08 14:07:00,
2013-02-08 09:37:00,67.0,60.0,30.00,WSW,246,8.0,-999.0,78,-99.99,,,0.00,weatherlink.com 1.10,2013-02-08 14:37:00,
2013-02-08 09:52:00,67.6,60.0,30.01,WNW,303,3.0,-999.0,77,-99.99,,,0.00,weatherlink.com 1.10,2013-02-08 14:52:00,
2013-02-08 10:07:00,68.2,60.0,30.01,North,355,2.0,-999.0,76,-99.99,,,0.00,weatherlink.com 1.10,2013-02-08 15:07:00,
2013-02-08 10:22:00,69.1,61.0,30.01,WNW,284,4.0,-999.0,74,-99.99,,,0.00,weatherlink.com 1.10,2013-02-08 15:22:00,
2013-02-08 10:37:00,70.3,60.0,30.01,WNW,292,4.0,-999.0,71,-99.99,,,0.00,weatherlink.com 1.10,2013-02-08 15:37:00,
2013-02-08 10:52:00,71.8,61.0,30.01,West,271,7.0,-999.0,68,-99.99,,,0.00,weatherlink.com 1.10,2013-02-08 15:52:00,
2013-02-08 11:07:00,72.8,60.0,30.01,WNW,299,11.0,-999.0,64,-99.99,,,0.00,weatherlink.com 1.10,2013-02-08 16:07:00,
2013-02-08 11:22:00,73.5,60.0,30.02,WSW,248,4.0,-999.0,63,-99.99,,,0.00,weatherlink.com 1.10,2013-02-08 16:22:00,
2013-02-08 11:37:00,73.4,59.0,30.01,North,355,7.0,-999.0,62,-99.99,,,0.00,weatherlink.com 1.10,2013-02-08 16:37:00,
2013-02-08 11:52:00,73.4,59.0,30.00,North,360,2.0,-999.0,62,-99.99,,,0.00,weatherlink.com 1.10,2013-02-08 16:52:00,
2013-02-08 12:07:00,74.0,59.0,30.00,WSW,246,5.0,-999.0,60,-99.99,,,0.00,weatherlink.com 1.10,2013-02-08 17:07:00,
2013-02-08 12:22:00,74.8,59.0,30.00,WSW,254,4.0,-999.0,59,-99.99,,,0.00,weatherlink.com 1.10,2013-02-08 17:22:00,
2013-02-08 12:37:00,75.2,59.0,29.99,North,350,9.0,-999.0,57,-99.99,,,0.00,weatherlink.com 1.10,2013-02-08 17:37:00,
2013-02-08 12:52:00,75.7,59.0,29.98,NNW,343,4.0,-999.0,56,-99.99,,,0.00,weatherlink.com 1.10,2013-02-08 17:52:00,
2013-02-08 13:07:00,75.8,59.0,29.98,WNW,290,10.0,-999.0,56,-99.99,,,0.00,weatherlink.com 1.10,2013-02-08 18:07:00,
2013-02-08 13:22:00,76.9,59.0,29.97,WNW,295,0.0,-999.0,54,-99.99,,,0.00,weatherlink.com 1.10,2013-02-08 18:22:00,
2013-02-08 13:37:00,77.3,59.0,29.97,NW,319,4.0,-999.0,53,-99.99,,,0.00,weatherlink.com 1.10,2013-02-08 18:37:00,
2013-02-08 13:52:00,78.2,59.0,29.96,WNW,291,8.0,-999.0,52,-99.99,,,0.00,weatherlink.com 1.10,2013-02-08 18:52:00,
2013-02-08 14:07:00,78.9,59.0,29.96,WNW,292,2.0,-999.0,51,-99.99,,,0.00,weatherlink.com 1.10,2013-02-08 19:07:00,
2013-02-08 14:22:00,78.7,58.0,29.96,West,276,6.0,-999.0,49,-99.99,,,0.00,weatherlink.com 1.10,2013-02-08 19:22:00,
2013-02-08 14:37:00,79.2,58.0,29.96,NW,325,4.0,-999.0,49,-99.99,,,0.00,weatherlink.com 1.10,2013-02-08 19:37:00,
2013-02-08 14:52:00,79.6,59.0,29.96,WSW,248,2.0,-999.0,49,-99.99,,,0.00,weatherlink.com 1.10,2013-02-08 19:52:00,
2013-02-08 15:07:00,79.8,59.0,29.96,NW,317,6.0,-999.0,49,-99.99,,,0.00,weatherlink.com 1.10,2013-02-08 20:07:00,
2013-02-08 15:22:00,79.7,59.0,29.95,NW,311,0.0,-999.0,49,-99.99,,,0.00,weatherlink.com 1.10,2013-02-08 20:22:00,
2013-02-08 15:37:00,79.8,58.0,29.95,NW,312,0.0,-999.0,48,-99.99,,,0.00,weatherlink.com 1.10,2013-02-08 20:37:00,
2013-02-08 15:52:00,80.1,58.0,29.95,West,266,5.0,-999.0,47,-99.99,,,0.00,weatherlink.com 1.10,2013-02-08 20:52:00,
2013-02-08 16:07:00,80.3,58.0,29.95,West,274,6.0,-999.0,47,-99.99,,,0.00,weatherlink.com 1.10,2013-02-08 21:07:00,
2013-02-08 16:22:00,79.9,58.0,29.95,WNW,286,4.0,-999.0,47,-99.99,,,0.00,weatherlink.com 1.10,2013-02-08 21:22:00,
2013-02-08 16:37:00,79.4,57.0,29.95,North,350,3.0,-999.0,47,-99.99,,,0.00,weatherlink.com 1.10,2013-02-08 21:37:00,
2013-02-08 16:52:00,79.2,58.0,29.95,WNW,294,5.0,-999.0,48,-99.99,,,0.00,weatherlink.com 1.10,2013-02-08 21:52:00,
2013-02-08 17:07:00,79.1,58.0,29.95,NNW,333,1.0,-999.0,48,-99.99,,,0.00,weatherlink.com 1.10,2013-02-08 22:07:00,
2013-02-08 17:22:00,78.9,57.0,29.96,WNW,291,3.0,-999.0,47,-99.99,,,0.00,weatherlink.com 1.10,2013-02-08 22:22:00,
2013-02-08 17:37:00,78.2,57.0,29.96,NNW,327,5.0,-999.0,48,-99.99,,,0.00,weatherlink.com 1.10,2013-02-08 22:37:00,
2013-02-08 17:52:00,77.3,57.0,29.97,WNW,291,0.0,-999.0,50,-99.99,,,0.00,weatherlink.com 1.10,2013-02-08 22:52:00,
2013-02-08 18:07:00,76.3,57.0,29.97,NNW,338,1.0,-999.0,51,-99.99,,,0.00,weatherlink.com 1.10,2013-02-08 23:07:00,
2013-02-08 18:22:00,75.4,56.0,29.98,NW,311,3.0,-999.0,51,-99.99,,,0.00,weatherlink.com 1.10,2013-02-08 23:22:00,
2013-02-08 18:37:00,74.7,56.0,29.98,WNW,296,7.0,-999.0,52,-99.99,,,0.00,weatherlink.com 1.10,2013-02-08 23:37:00,
2013-02-08 18:52:00,74.0,56.0,29.99,WNW,291,0.0,-999.0,54,-99.99,,,0.00,weatherlink.com 1.10,2013-02-08 23:52:00,
2013-02-08 19:08:00,73.2,57.0,29.99,WNW,300,5.0,-999.0,57,-99.99,,,0.00,weatherlink.com 1.10,2013-02-09 00:08:00,
2013-02-08 19:22:00,72.5,57.0,30.00,WNW,303,0.0,-999.0,59,-99.99,,,0.00,weatherlink.com 1.10,2013-02-09 00:22:00,
2013-02-08 19:37:00,71.9,57.0,30.00,WSW,257,1.0,-999.0,60,-99.99,,,0.00,weatherlink.com 1.10,2013-02-09 00:37:00,
2013-02-08 19:52:00,71.4,57.0,30.01,West,274,5.0,-999.0,61,-99.99,,,0.00,weatherlink.com 1.10,2013-02-09 00:52:00,
2013-02-08 20:07:00,70.9,57.0,30.02,West,268,0.0,-999.0,61,-99.99,,,0.00,weatherlink.com 1.10,2013-02-09 01:07:00,
2013-02-08 20:22:00,70.4,57.0,30.02,West,277,0.0,-999.0,62,-99.99,,,0.00,weatherlink.com 1.10,2013-02-09 01:22:00,
2013-02-08 20:37:00,69.8,57.0,30.02,NW,306,2.0,-999.0,64,-99.99,,,0.00,weatherlink.com 1.10,2013-02-09 01:37:00,
2013-02-08 20:52:00,68.9,57.0,30.04,WNW,294,1.0,-999.0,67,-99.99,,,0.00,weatherlink.com 1.10,2013-02-09 01:52:00,
2013-02-08 21:07:00,68.0,58.0,30.05,NNW,344,0.0,-999.0,70,-99.99,,,0.00,weatherlink.com 1.10,2013-02-09 02:07:00,
2013-02-08 21:22:00,67.2,58.0,30.05,WNW,293,4.0,-999.0,72,-99.99,,,0.00,weatherlink.com 1.10,2013-02-09 02:22:00,
2013-02-08 21:37:00,66.4,58.0,30.05,NE,48,3.0,-999.0,74,-99.99,,,0.00,weatherlink.com 1.10,2013-02-09 02:37:00,
2013-02-08 21:52:00,65.6,58.0,30.06,NW,319,1.0,-999.0,76,-99.99,,,0.00,weatherlink.com 1.10,2013-02-09 02:52:00,
2013-02-08 22:07:00,64.7,58.0,30.07,WNW,286,9.0,-999.0,78,-99.99,,,0.00,weatherlink.com 1.10,2013-02-09 03:07:00,
2013-02-08 22:22:00,64.0,58.0,30.07,WNW,300,2.0,-999.0,81,-99.99,,,0.00,weatherlink.com 1.10,2013-02-09 03:22:00,
2013-02-08 22:37:00,63.4,58.0,30.07,WNW,294,1.0,-999.0,82,-99.99,,,0.00,weatherlink.com 1.10,2013-02-09 03:37:00,
2013-02-08 22:52:00,62.9,58.0,30.08,WNW,294,2.0,-999.0,83,-99.99,,,0.00,weatherlink.com 1.10,2013-02-09 03:52:00,
2013-02-08 23:07:00,62.6,58.0,30.08,WNW,296,0.0,-999.0,84,-99.99,,,0.00,weatherlink.com 1.10,2013-02-09 04:07:00,
2013-02-08 23:23:00,62.3,58.0,30.08,WNW,296,1.0,-999.0,85,-99.99,,,0.00,weatherlink.com 1.10,2013-02-09 04:23:00,
2013-02-08 23:37:00,62.1,58.0,30.08,WNW,295,0.0,-999.0,86,-99.99,,,0.00,weatherlink.com 1.10,2013-02-09 04:37:00,
2013-02-08 23:52:00,62.0,58.0,30.08,WNW,295,0.0,-999.0,86,-99.99,,,0.00,weatherlink.com 1.10,2013-02-09 04:52:00,